Time,TemperatureF,DewpointF,PressureIn,WindDirection,WindDirectionDegrees,WindSpeedMPH,WindSpeedGustMPH,Humidity,HourlyPrecipIn,Conditions,Clouds,dailyrainin,SoftwareType,DateUTC
2013-03-13 00:03:00,16.9,6.5,30.17,NNW,331,7.2,11.3,63,0.00,,SKC,0.00,VWS V14.01,2013-03-13 05:03:00,
2013-03-13 00:08:00,16.5,6.1,30.17,NNW,327,11.3,11.3,63,0.00,,SKC,0.00,VWS V14.01,2013-03-13 05:08:00,
2013-03-13 00:13:00,16.5,6.5,30.17,NW,326,17.3,17.3,64,0.00,,SKC,0.00,VWS V14.01,2013-03-13 05:13:00,
2013-03-13 00:18:00,16.5,6.5,30.17,NNW,338,10.5,10.5,64,0.00,,SKC,0.00,VWS V14.01,2013-03-13 05:18:00,
2013-03-13 00:23:00,16.5,6.5,30.17,WNW,293,7.2,17.3,64,0.00,,SKC,0.00,VWS V14.01,2013-03-13 05:23:00,
2013-03-13 00:28:00,16.3,6.3,30.17,WNW,289,15.7,15.7,64,0.00,,SKC,0.00,VWS V14.01,2013-03-13 05:28:00,
2013-03-13 00:33:00,16.2,6.1,30.17,North,357,9.7,14.9,64,0.00,,SKC,0.00,VWS V14.01,2013-03-13 05:33:00,
2013-03-13 00:38:00,16.2,6.1,30.17,NW,312,14.5,14.5,64,0.00,,SKC,0.00,VWS V14.01,2013-03-13 05:38:00,
2013-03-13 00:43:00,16.0,6.0,30.17,North,353,9.7,14.5,64,0.00,,SKC,0.00,VWS V14.01,2013-03-13 05:43:00,
2013-03-13 00:48:00,16.0,6.0,30.17,NNW,341,15.7,15.7,64,0.00,,SKC,0.00,VWS V14.01,2013-03-13 05:48:00,
2013-03-13 00:53:00,15.8,5.8,30.17,NW,320,6.4,11.3,64,0.00,,SKC,0.00,VWS V14.01,2013-03-13 05:53:00,
2013-03-13 00:58:00,15.8,5.8,30.17,WNW,290,4.8,8.9,64,0.00,,SKC,0.00,VWS V14.01,2013-03-13 05:58:00,
2013-03-13 01:03:00,15.8,5.8,30.17,WNW,284,9.7,13.7,64,0.00,,SKC,0.00,VWS V14.01,2013-03-13 06:03:00,
2013-03-13 01:08:00,15.8,5.8,30.20,NW,306,9.7,10.5,64,0.00,,SKC,0.00,VWS V14.01,2013-03-13 06:08:00,
2013-03-13 01:14:00,15.4,5.4,30.20,NNW,327,10.5,10.5,64,0.00,,SKC,0.00,VWS V14.01,2013-03-13 06:14:00,
2013-03-13 01:19:00,15.4,5.4,30.20,NNW,341,14.5,14.5,64,0.00,,SKC,0.00,VWS V14.01,2013-03-13 06:19:00,
2013-03-13 01:24:00,15.3,5.3,30.20,NNW,327,6.4,7.2,64,0.00,,SKC,0.00,VWS V14.01,2013-03-13 06:24:00,
2013-03-13 01:29:00,15.4,5.4,30.20,NNW,331,10.5,17.3,64,0.00,,SKC,0.00,VWS V14.01,2013-03-13 06:29:00,
2013-03-13 01:34:00,15.4,5.8,30.20,NNW,332,9.7,9.7,65,0.00,,SKC,0.00,VWS V14.01,2013-03-13 06:34:00,
2013-03-13 01:39:00,15.3,5.3,30.20,WNW,285,9.7,11.3,64,0.00,,SKC,0.00,VWS V14.01,2013-03-13 06:39:00,
2013-03-13 01:44:00,15.1,5.1,30.20,North,357,9.7,9.7,64,0.00,,SKC,0.00,VWS V14.01,2013-03-13 06:44:00,
2013-03-13 01:49:00,15.1,5.1,30.20,NW,308,15.7,15.7,64,0.00,,SKC,0.00,VWS V14.01,2013-03-13 06:49:00,
2013-03-13 01:54:00,14.9,5.3,30.20,NW,315,9.7,9.7,65,0.00,,SKC,0.00,VWS V14.01,2013-03-13 06:54:00,
2013-03-13 01:59:00,14.9,5.3,30.20,NW,326,10.5,13.7,65,0.00,,SKC,0.00,VWS V14.01,2013-03-13 06:59:00,
2013-03-13 02:04:00,14.9,5.3,30.20,NW,320,14.9,18.1,65,0.00,,SKC,0.00,VWS V14.01,2013-03-13 07:04:00,
2013-03-13 02:09:00,14.9,4.9,30.20,NW,315,11.3,13.7,64,0.00,,SKC,0.00,VWS V14.01,2013-03-13 07:09:00,
2013-03-13 02:14:00,14.9,4.9,30.20,NW,318,11.3,15.7,64,0.00,,SKC,0.00,VWS V14.01,2013-03-13 07:14:00,
2013-03-13 02:19:00,14.5,4.9,30.20,NW,315,10.5,11.3,65,0.00,,SKC,0.00,VWS V14.01,2013-03-13 07:19:00,
2013-03-13 02:24:00,14.5,4.9,30.20,NW,323,7.2,9.7,65,0.00,,SKC,0.00,VWS V14.01,2013-03-13 07:24:00,
2013-03-13 02:29:00,14.4,4.8,30.20,NW,307,11.3,11.3,65,0.00,,SKC,0.00,VWS V14.01,2013-03-13 07:29:00,
2013-03-13 02:34:00,14.4,4.8,30.20,NW,307,8.9,8.9,65,0.00,,SKC,0.00,VWS V14.01,2013-03-13 07:34:00,
2013-03-13 02:39:00,14.0,4.4,30.20,NW,324,9.7,11.3,65,0.00,,SKC,0.00,VWS V14.01,2013-03-13 07:39:00,
2013-03-13 02:44:00,13.8,4.2,30.20,WNW,303,13.7,13.7,65,0.00,,SKC,0.00,VWS V14.01,2013-03-13 07:44:00,
2013-03-13 02:49:00,13.8,4.6,30.20,NNW,335,8.1,11.3,66,0.00,,SKC,0.00,VWS V14.01,2013-03-13 07:49:00,
2013-03-13 02:54:00,13.8,4.6,30.20,NNW,335,6.4,14.5,66,0.00,,SKC,0.00,VWS V14.01,2013-03-13 07:54:00,
2013-03-13 02:59:00,13.8,4.6,30.20,NW,310,6.4,6.4,66,0.00,,SKC,0.00,VWS V14.01,2013-03-13 07:59:00,
2013-03-13 03:04:00,13.6,4.4,30.23,NW,321,6.4,11.3,66,0.00,,SKC,0.00,VWS V14.01,2013-03-13 08:04:00,
2013-03-13 03:09:00,13.5,4.2,30.23,NW,326,7.2,14.9,66,0.00,,SKC,0.00,VWS V14.01,2013-03-13 08:09:00,
2013-03-13 03:14:00,13.3,4.1,30.23,NW,322,4.8,8.9,66,0.00,,SKC,0.00,VWS V14.01,2013-03-13 08:14:00,
2013-03-13 03:19:00,13.3,4.1,30.23,NNW,336,10.5,10.5,66,0.00,,SKC,0.00,VWS V14.01,2013-03-13 08:19:00,
2013-03-13 03:24:00,13.3,4.1,30.23,NW,304,10.5,10.5,66,0.00,,SKC,0.00,VWS V14.01,2013-03-13 08:24:00,
2013-03-13 03:29:00,12.9,3.7,30.23,NNW,332,6.4,10.5,66,0.00,,SKC,0.00,VWS V14.01,2013-03-13 08:29:00,
2013-03-13 03:34:00,13.1,3.9,30.23,WNW,295,5.6,14.9,66,0.00,,SKC,0.00,VWS V14.01,2013-03-13 08:34:00,
2013-03-13 03:39:00,13.1,3.9,30.23,NW,320,7.2,7.2,66,0.00,,SKC,0.00,VWS V14.01,2013-03-13 08:39:00,
2013-03-13 03:44:00,13.1,3.9,30.23,WNW,302,4.8,13.7,66,0.00,,SKC,0.00,VWS V14.01,2013-03-13 08:44:00,
2013-03-13 03:50:00,13.1,3.9,30.23,NNW,338,6.4,8.9,66,0.00,,SKC,0.00,VWS V14.01,2013-03-13 08:50:00,
2013-03-13 03:55:00,12.9,3.7,30.23,WNW,301,8.9,8.9,66,0.00,,SKC,0.00,VWS V14.01,2013-03-13 08:55:00,
2013-03-13 04:00:00,12.9,3.7,30.23,NNW,335,6.4,6.4,66,0.00,,SKC,0.00,VWS V14.01,2013-03-13 09:00:00,
2013-03-13 04:05:00,12.7,3.5,30.23,NNW,329,9.7,9.7,66,0.00,,SKC,0.00,VWS V14.01,2013-03-13 09:05:00,
2013-03-13 04:10:00,12.9,3.7,30.23,WNW,295,4.8,4.8,66,0.00,,SKC,0.00,VWS V14.01,2013-03-13 09:10:00,
2013-03-13 04:15:00,12.9,3.7,30.23,NNW,333,7.2,7.2,66,0.00,,SKC,0.00,VWS V14.01,2013-03-13 09:15:00,
2013-03-13 04:20:00,12.7,3.5,30.23,NW,320,10.5,10.5,66,0.00,,SKC,0.00,VWS V14.01,2013-03-13 09:20:00,
2013-03-13 04:25:00,12.7,3.5,30.23,NNW,341,10.5,10.5,66,0.00,,SKC,0.00,VWS V14.01,2013-03-13 09:25:00,
2013-03-13 04:30:00,12.6,3.4,30.23,NNW,335,9.7,11.3,66,0.00,,SKC,0.00,VWS V14.01,2013-03-13 09:30:00,
2013-03-13 04:35:00,12.4,3.2,30.23,NW,321,4.0,4.0,66,0.00,,SKC,0.00,VWS V14.01,2013-03-13 09:35:00,
2013-03-13 04:40:00,12.2,3.0,30.23,NNW,329,7.2,7.2,66,0.00,,SKC,0.00,VWS V14.01,2013-03-13 09:40:00,
2013-03-13 04:45:00,12.2,3.0,30.23,WNW,297,8.9,8.9,66,0.00,,SKC,0.00,VWS V14.01,2013-03-13 09:45:00,
2013-03-13 04:50:00,12.6,3.4,30.26,NW,320,9.7,9.7,66,0.00,,SKC,0.00,VWS V14.01,2013-03-13 09:50:00,
2013-03-13 04:55:00,12.6,3.4,30.26,NW,311,7.2,8.9,66,0.00,,SKC,0.00,VWS V14.01,2013-03-13 09:55:00,
2013-03-13 05:00:00,12.2,3.0,30.26,WNW,293,8.9,8.9,66,0.00,,SKC,0.00,VWS V14.01,2013-03-13 10:00:00,
2013-03-13 05:05:00,12.2,3.0,30.26,West,277,12.9,12.9,66,0.00,,SKC,0.00,VWS V14.01,2013-03-13 10:05:00,
2013-03-13 05:10:00,12.2,3.0,30.26,NW,315,8.9,9.7,66,0.00,,SKC,0.00,VWS V14.01,2013-03-13 10:10:00,
2013-03-13 05:15:00,12.4,3.2,30.26,WNW,294,9.7,13.7,66,0.00,,SKC,0.00,VWS V14.01,2013-03-13 10:15:00,
2013-03-13 05:20:00,12.2,3.0,30.26,NW,310,15.7,15.7,66,0.00,,SKC,0.00,VWS V14.01,2013-03-13 10:20:00,
2013-03-13 05:25:00,12.2,3.0,30.26,NW,314,13.7,13.7,66,0.00,,SKC,0.00,VWS V14.01,2013-03-13 10:25:00,
2013-03-13 05:30:00,12.6,3.4,30.26,West,279,6.4,10.5,66,0.00,,SKC,0.00,VWS V14.01,2013-03-13 10:30:00,
2013-03-13 05:35:00,12.6,3.4,30.26,NW,326,12.1,12.9,66,0.00,,SKC,0.00,VWS V14.01,2013-03-13 10:35:00,
2013-03-13 05:40:00,12.6,3.4,30.26,West,270,6.4,6.4,66,0.00,,SKC,0.00,VWS V14.01,2013-03-13 10:40:00,
2013-03-13 05:45:00,12.4,3.2,30.26,NW,326,5.6,11.3,66,0.00,,SKC,0.00,VWS V14.01,2013-03-13 10:45:00,
2013-03-13 05:50:00,12.2,3.0,30.29,NW,312,10.5,11.3,66,0.00,,SKC,0.00,VWS V14.01,2013-03-13 10:50:00,
2013-03-13 05:55:00,12.0,2.9,30.29,NW,306,6.4,11.3,66,0.00,,SKC,0.00,VWS V14.01,2013-03-13 10:55:00,
2013-03-13 06:00:00,11.7,2.5,30.29,WNW,303,10.5,10.5,66,0.00,,SKC,0.00,VWS V14.01,2013-03-13 11:00:00,
2013-03-13 06:05:00,11.8,2.7,30.29,NW,309,7.2,8.9,66,0.00,,SKC,0.00,VWS V14.01,2013-03-13 11:05:00,
2013-03-13 06:10:00,11.7,2.5,30.29,West,263,10.5,13.7,66,0.00,,SKC,0.00,VWS V14.01,2013-03-13 11:10:00,
2013-03-13 06:15:00,11.8,2.7,30.29,West,274,11.3,11.3,66,0.00,,SKC,0.00,VWS V14.01,2013-03-13 11:15:00,
2013-03-13 06:20:00,11.7,2.5,30.29,WNW,299,4.8,7.2,66,0.00,,SKC,0.00,VWS V14.01,2013-03-13 11:20:00,
2013-03-13 06:25:00,11.5,2.3,30.29,WNW,287,5.6,5.6,66,0.00,,SKC,0.00,VWS V14.01,2013-03-13 11:25:00,
2013-03-13 06:30:00,11.3,2.2,30.29,WNW,291,5.6,10.5,66,0.00,,SKC,0.00,VWS V14.01,2013-03-13 11:30:00,
2013-03-13 06:35:00,11.1,2.0,30.29,WNW,289,7.2,10.5,66,0.00,,SKC,0.00,VWS V14.01,2013-03-13 11:35:00,
2013-03-13 06:40:00,11.1,2.0,30.29,WNW,286,5.6,9.7,66,0.00,,SKC,0.00,VWS V14.01,2013-03-13 11:40:00,
2013-03-13 06:45:00,10.8,1.6,30.29,WNW,289,6.4,7.2,66,0.00,,SKC,0.00,VWS V14.01,2013-03-13 11:45:00,
2013-03-13 06:50:00,10.8,1.6,30.29,WNW,294,6.4,6.4,66,0.00,,SKC,0.00,VWS V14.01,2013-03-13 11:50:00,
2013-03-13 06:55:00,10.4,1.3,30.29,NNW,346,10.5,10.5,66,0.00,,SKC,0.00,VWS V14.01,2013-03-13 11:55:00,
2013-03-13 07:00:00,10.4,1.3,30.29,North,350,10.5,10.5,66,0.00,,SKC,0.00,VWS V14.01,2013-03-13 12:00:00,
2013-03-13 07:05:00,10.4,1.3,30.29,WNW,297,8.9,8.9,66,0.00,,SKC,0.00,VWS V14.01,2013-03-13 12:05:00,
2013-03-13 07:10:00,10.2,1.1,30.29,NW,307,6.4,13.7,66,0.00,,SKC,0.00,VWS V14.01,2013-03-13 12:10:00,
2013-03-13 07:15:00,10.2,1.1,30.29,WNW,303,6.4,10.5,66,0.00,,SKC,0.00,VWS V14.01,2013-03-13 12:15:00,
2013-03-13 07:20:00,10.2,1.1,30.32,NW,306,6.4,6.4,66,0.00,,SKC,0.00,VWS V14.01,2013-03-13 12:20:00,
2013-03-13 07:25:00,10.2,1.1,30.32,West,280,6.4,10.5,66,0.00,,SKC,0.00,VWS V14.01,2013-03-13 12:25:00,
2013-03-13 07:30:00,10.0,1.0,30.32,WNW,302,7.2,7.2,66,0.00,,SKC,0.00,VWS V14.01,2013-03-13 12:30:00,
2013-03-13 07:35:00,9.9,0.8,30.32,NNW,334,4.8,6.4,66,0.00,,SKC,0.00,VWS V14.01,2013-03-13 12:35:00,
2013-03-13 07:40:00,9.7,0.6,30.32,NNW,328,10.5,10.5,66,0.00,,SKC,0.00,VWS V14.01,2013-03-13 12:40:00,
2013-03-13 07:45:00,9.9,0.8,30.32,West,278,8.1,9.7,66,0.00,,SKC,0.00,VWS V14.01,2013-03-13 12:45:00,
2013-03-13 07:50:00,9.9,0.8,30.32,NW,307,6.4,7.2,66,0.00,,SKC,0.00,VWS V14.01,2013-03-13 12:50:00,
2013-03-13 07:55:00,10.0,1.0,30.32,NW,306,9.7,11.3,66,0.00,,SKC,0.00,VWS V14.01,2013-03-13 12:55:00,
2013-03-13 08:00:00,10.4,1.3,30.32,WNW,297,6.4,8.9,66,0.00,,SKC,0.00,VWS V14.01,2013-03-13 13:00:00,
2013-03-13 08:05:00,10.2,1.1,30.32,NNW,331,10.5,14.5,66,0.00,,SKC,0.00,VWS V14.01,2013-03-13 13:05:00,
2013-03-13 08:10:00,10.4,1.3,30.32,WNW,300,7.2,7.2,66,0.00,,SKC,0.00,VWS V14.01,2013-03-13 13:10:00,
2013-03-13 08:15:00,10.6,1.5,30.32,WNW,302,11.3,13.7,66,0.00,,SKC,0.00,VWS V14.01,2013-03-13 13:15:00,
2013-03-13 08:20:00,10.8,1.6,30.32,NW,322,5.6,6.4,66,0.00,,SKC,0.00,VWS V14.01,2013-03-13 13:20:00,
2013-03-13 08:25:00,10.9,1.8,30.32,NW,304,4.8,11.3,66,0.00,,SKC,0.00,VWS V14.01,2013-03-13 13:25:00,
2013-03-13 08:30:00,11.1,2.0,30.32,WNW,292,4.8,8.9,66,0.00,,SKC,0.00,VWS V14.01,2013-03-13 13:30:00,
2013-03-13 08:35:00,11.7,2.5,30.32,West,274,6.4,12.1,66,0.00,,SKC,0.00,VWS V14.01,2013-03-13 13:35:00,
2013-03-13 08:40:00,12.0,2.9,30.32,NW,307,6.4,10.5,66,0.00,,SKC,0.00,VWS V14.01,2013-03-13 13:40:00,
2013-03-13 08:45:00,12.6,3.4,30.32,WNW,297,8.9,11.3,66,0.00,,SKC,0.00,VWS V14.01,2013-03-13 13:45:00,
2013-03-13 08:50:00,12.9,3.7,30.35,West,276,8.9,10.5,66,0.00,,SKC,0.00,VWS V14.01,2013-03-13 13:50:00,
2013-03-13 08:55:00,13.3,4.1,30.35,WNW,301,7.2,11.3,66,0.00,,SKC,0.00,VWS V14.01,2013-03-13 13:55:00,
2013-03-13 09:00:00,13.6,4.4,30.35,NNW,329,7.2,11.3,66,0.00,,SKC,0.00,VWS V14.01,2013-03-13 14:00:00,
2013-03-13 09:05:00,14.2,3.6,30.35,NNW,338,5.6,9.7,62,0.00,,SKC,0.00,VWS V14.01,2013-03-13 14:05:00,
2013-03-13 09:10:00,14.4,3.0,30.35,NNW,329,13.7,14.9,60,0.00,,SKC,0.00,VWS V14.01,2013-03-13 14:10:00,
2013-03-13 09:15:00,14.9,3.2,30.35,NW,321,7.2,7.2,59,0.00,,SKC,0.00,VWS V14.01,2013-03-13 14:15:00,
2013-03-13 09:20:00,15.1,3.0,30.35,WNW,295,9.7,9.7,58,0.00,,SKC,0.00,VWS V14.01,2013-03-13 14:20:00,
2013-03-13 09:25:00,15.8,3.7,30.35,WNW,297,4.8,8.9,58,0.00,,SKC,0.00,VWS V14.01,2013-03-13 14:25:00,
2013-03-13 09:30:00,16.3,3.4,30.35,North,357,6.4,6.4,56,0.00,,SKC,0.00,VWS V14.01,2013-03-13 14:30:00,
2013-03-13 09:35:00,16.7,3.7,30.35,NW,315,0.0,10.5,56,0.00,,SKC,0.00,VWS V14.01,2013-03-13 14:35:00,
2013-03-13 09:40:00,16.2,2.5,30.35,NW,314,9.7,9.7,54,0.00,,SKC,0.00,VWS V14.01,2013-03-13 14:40:00,
2013-03-13 09:45:00,16.7,3.3,30.35,WNW,294,5.6,11.3,55,0.00,,SKC,0.00,VWS V14.01,2013-03-13 14:45:00,
2013-03-13 09:50:00,16.7,3.3,30.35,NW,309,4.8,7.2,55,0.00,,SKC,0.00,VWS V14.01,2013-03-13 14:50:00,
2013-03-13 09:57:00,17.1,3.3,30.35,NNW,330,12.9,12.9,54,0.00,,SKC,0.00,VWS V14.01,2013-03-13 14:57:00,
2013-03-13 10:02:00,17.8,4.0,30.35,NNW,338,11.3,11.3,54,0.00,,SKC,0.00,VWS V14.01,2013-03-13 15:02:00,
2013-03-13 10:07:00,18.0,3.7,30.38,NW,314,9.7,9.7,53,0.00,,SKC,0.00,VWS V14.01,2013-03-13 15:07:00,
2013-03-13 10:12:00,18.5,4.2,30.38,NNW,333,12.9,12.9,53,0.00,,SKC,0.00,VWS V14.01,2013-03-13 15:12:00,
2013-03-13 10:17:00,18.5,4.2,30.38,WNW,290,5.6,5.6,53,0.00,,SKC,0.00,VWS V14.01,2013-03-13 15:17:00,
2013-03-13 10:22:00,19.0,4.7,30.38,North,357,11.3,11.3,53,0.00,,SKC,0.00,VWS V14.01,2013-03-13 15:22:00,
2013-03-13 10:27:00,19.2,4.5,30.38,NW,307,6.4,7.2,52,0.00,,SKC,0.00,VWS V14.01,2013-03-13 15:27:00,
2013-03-13 10:32:00,19.8,4.6,30.38,North,353,5.6,13.7,51,0.00,,SKC,0.00,VWS V14.01,2013-03-13 15:32:00,
2013-03-13 10:38:00,19.8,4.1,30.38,NNW,338,4.8,11.3,50,0.00,,SKC,0.00,VWS V14.01,2013-03-13 15:38:00,
2013-03-13 10:44:00,19.8,4.1,30.38,NNW,340,14.5,14.5,50,0.00,,SKC,0.00,VWS V14.01,2013-03-13 15:44:00,
2013-03-13 10:49:00,20.1,4.5,30.38,NNW,345,10.5,10.5,50,0.00,,SKC,0.00,VWS V14.01,2013-03-13 15:49:00,
2013-03-13 10:54:00,20.7,4.5,30.38,NNW,336,9.7,9.7,49,0.00,,SKC,0.00,VWS V14.01,2013-03-13 15:54:00,
2013-03-13 10:59:00,21.2,5.0,30.38,North,357,4.8,11.3,49,0.00,,SKC,0.00,VWS V14.01,2013-03-13 15:59:00,
2013-03-13 11:04:00,21.6,5.4,30.38,NW,307,7.2,14.9,49,0.00,,SKC,0.00,VWS V14.01,2013-03-13 16:04:00,
2013-03-13 11:09:00,21.7,4.6,30.38,NW,312,4.0,10.5,47,0.00,,SKC,0.00,VWS V14.01,2013-03-13 16:09:00,
2013-03-13 11:14:00,21.7,4.6,30.38,NNW,339,10.5,10.5,47,0.00,,SKC,0.00,VWS V14.01,2013-03-13 16:14:00,
2013-03-13 11:19:00,21.9,4.8,30.38,North,353,9.7,14.5,47,0.00,,SKC,0.00,VWS V14.01,2013-03-13 16:19:00,
2013-03-13 11:24:00,22.6,5.9,30.38,NW,321,4.8,13.7,48,0.00,,SKC,0.00,VWS V14.01,2013-03-13 16:24:00,
2013-03-13 11:29:00,22.8,5.6,30.38,North,353,10.5,10.5,47,0.00,,SKC,0.00,VWS V14.01,2013-03-13 16:29:00,
2013-03-13 11:34:00,23.2,5.5,30.38,NNW,342,6.4,11.3,46,0.00,,SKC,0.00,VWS V14.01,2013-03-13 16:34:00,
2013-03-13 11:39:00,23.4,5.7,30.38,NW,325,0.0,8.9,46,0.00,,SKC,0.00,VWS V14.01,2013-03-13 16:39:00,
2013-03-13 11:44:00,23.9,6.1,30.38,WNW,299,6.4,6.4,46,0.00,,SKC,0.00,VWS V14.01,2013-03-13 16:44:00,
2013-03-13 11:49:00,24.3,6.0,30.38,West,280,4.8,7.2,45,0.00,,SKC,0.00,VWS V14.01,2013-03-13 16:49:00,
2013-03-13 11:55:00,24.4,6.2,30.38,WNW,298,10.5,10.5,45,0.00,,SKC,0.00,VWS V14.01,2013-03-13 16:55:00,
2013-03-13 12:00:00,24.4,6.2,30.38,West,268,7.2,10.5,45,0.00,,SKC,0.00,VWS V14.01,2013-03-13 17:00:00,
2013-03-13 12:05:00,24.8,6.5,30.38,WNW,286,7.2,13.7,45,0.00,,SKC,0.00,VWS V14.01,2013-03-13 17:05:00,
2013-03-13 12:10:00,25.2,6.8,30.38,WNW,293,6.4,8.9,45,0.00,,SKC,0.00,VWS V14.01,2013-03-13 17:10:00,
2013-03-13 12:15:00,26.1,7.6,30.38,West,264,7.2,7.2,45,0.00,,SKC,0.00,VWS V14.01,2013-03-13 17:15:00,
2013-03-13 12:20:00,25.5,6.7,30.38,NW,312,0.0,0.0,44,0.00,,SKC,0.00,VWS V14.01,2013-03-13 17:20:00,
2013-03-13 12:25:00,25.3,6.5,30.38,NNW,338,5.6,11.3,44,0.00,,SKC,0.00,VWS V14.01,2013-03-13 17:25:00,
2013-03-13 12:30:00,25.0,6.2,30.38,NNW,335,4.8,4.8,44,0.00,,SKC,0.00,VWS V14.01,2013-03-13 17:30:00,
2013-03-13 12:35:00,25.2,6.3,30.38,NNW,337,4.8,9.7,44,0.00,,SKC,0.00,VWS V14.01,2013-03-13 17:35:00,
2013-03-13 12:40:00,25.5,6.7,30.38,NNE,15,7.2,7.2,44,0.00,,SKC,0.00,VWS V14.01,2013-03-13 17:40:00,
2013-03-13 12:45:00,25.3,6.5,30.38,North,353,5.6,5.6,44,0.00,,SKC,0.00,VWS V14.01,2013-03-13 17:45:00,
2013-03-13 12:50:00,25.0,6.2,30.38,North,357,4.0,10.5,44,0.00,,SKC,0.00,VWS V14.01,2013-03-13 17:50:00,
2013-03-13 12:55:00,25.5,7.2,30.38,North,10,0.0,8.9,45,0.00,,SKC,0.00,VWS V14.01,2013-03-13 17:55:00,
2013-03-13 13:00:00,27.0,8.0,30.38,NW,324,6.4,6.4,44,0.00,,SKC,0.00,VWS V14.01,2013-03-13 18:00:00,
2013-03-13 13:06:00,27.1,7.6,30.38,North,353,9.7,9.7,43,0.00,,SKC,0.00,VWS V14.01,2013-03-13 18:06:00,
2013-03-13 13:12:00,27.9,8.3,30.38,WNW,287,0.0,9.7,43,0.00,,SKC,0.00,VWS V14.01,2013-03-13 18:12:00,
2013-03-13 13:17:00,28.4,8.8,30.38,North,357,5.6,5.6,43,0.00,,SKC,0.00,VWS V14.01,2013-03-13 18:17:00,
2013-03-13 13:22:00,28.0,8.4,30.38,West,273,8.9,8.9,43,0.00,,SKC,0.00,VWS V14.01,2013-03-13 18:22:00,
2013-03-13 13:27:00,28.4,8.8,30.38,WSW,246,9.7,11.3,43,0.00,,SKC,0.00,VWS V14.01,2013-03-13 18:27:00,
2013-03-13 13:32:00,28.4,8.8,30.38,WSW,244,4.8,9.7,43,0.00,,SKC,0.00,VWS V14.01,2013-03-13 18:32:00,
2013-03-13 13:37:00,28.4,8.8,30.38,WNW,283,15.7,15.7,43,0.00,,SKC,0.00,VWS V14.01,2013-03-13 18:37:00,
2013-03-13 13:42:00,28.6,8.9,30.38,WSW,249,10.5,10.5,43,0.00,,SKC,0.00,VWS V14.01,2013-03-13 18:42:00,
2013-03-13 13:47:00,29.7,9.9,30.38,West,275,10.5,13.7,43,0.00,,SKC,0.00,VWS V14.01,2013-03-13 18:47:00,
2013-03-13 13:52:00,29.1,8.9,30.38,WNW,303,11.3,13.7,42,0.00,,SKC,0.00,VWS V14.01,2013-03-13 18:52:00,
2013-03-13 13:57:00,29.3,9.6,30.38,West,262,9.7,9.7,43,0.00,,SKC,0.00,VWS V14.01,2013-03-13 18:57:00,
2013-03-13 14:02:00,29.3,9.6,30.38,West,265,10.5,14.9,43,0.00,,SKC,0.00,VWS V14.01,2013-03-13 19:02:00,
2013-03-13 14:07:00,29.5,9.2,30.38,West,267,5.6,13.7,42,0.00,,SKC,0.00,VWS V14.01,2013-03-13 19:07:00,
2013-03-13 14:12:00,30.0,9.7,30.38,WNW,300,9.7,9.7,42,0.00,,SKC,0.00,VWS V14.01,2013-03-13 19:12:00,
2013-03-13 14:17:00,30.4,9.5,30.38,WNW,303,4.8,6.4,41,0.00,,SKC,0.00,VWS V14.01,2013-03-13 19:17:00,
2013-03-13 14:22:00,29.7,9.4,30.38,West,273,10.5,13.7,42,0.00,,SKC,0.00,VWS V14.01,2013-03-13 19:22:00,
2013-03-13 14:28:00,30.2,10.4,30.38,West,260,7.2,11.3,43,0.00,,SKC,0.00,VWS V14.01,2013-03-13 19:28:00,
2013-03-13 14:33:00,29.8,9.6,30.38,WNW,289,10.5,14.5,42,0.00,,SKC,0.00,VWS V14.01,2013-03-13 19:33:00,
2013-03-13 14:38:00,29.3,9.1,30.38,West,268,12.1,19.7,42,0.00,,SKC,0.00,VWS V14.01,2013-03-13 19:38:00,
2013-03-13 14:43:00,29.8,10.1,30.38,West,278,11.3,14.5,43,0.00,,SKC,0.00,VWS V14.01,2013-03-13 19:43:00,
2013-03-13 14:48:00,30.2,10.4,30.38,WNW,293,10.5,10.5,43,0.00,,SKC,0.00,VWS V14.01,2013-03-13 19:48:00,
2013-03-13 14:53:00,30.2,9.9,30.35,West,276,11.3,11.3,42,0.00,,SKC,0.00,VWS V14.01,2013-03-13 19:53:00,
2013-03-13 14:58:00,29.3,9.1,30.35,West,270,13.7,13.7,42,0.00,,SKC,0.00,VWS V14.01,2013-03-13 19:58:00,
2013-03-13 15:03:00,29.1,9.4,30.35,WNW,288,7.2,11.3,43,0.00,,SKC,0.00,VWS V14.01,2013-03-13 20:03:00,
2013-03-13 15:08:00,29.5,9.8,30.35,SW,223,4.0,10.5,43,0.00,,SKC,0.00,VWS V14.01,2013-03-13 20:08:00,
2013-03-13 15:13:00,30.2,9.9,30.35,WNW,291,8.9,13.7,42,0.00,,SKC,0.00,VWS V14.01,2013-03-13 20:13:00,
2013-03-13 15:18:00,30.6,10.7,30.35,West,263,7.2,10.5,43,0.00,,SKC,0.00,VWS V14.01,2013-03-13 20:18:00,
2013-03-13 15:23:00,30.2,10.4,30.35,WNW,290,8.9,11.3,43,0.00,,SKC,0.00,VWS V14.01,2013-03-13 20:23:00,
2013-03-13 15:28:00,29.3,9.1,30.35,WNW,283,9.7,10.5,42,0.00,,SKC,0.00,VWS V14.01,2013-03-13 20:28:00,
2013-03-13 15:33:00,30.2,10.4,30.35,NW,316,9.7,14.9,43,0.00,,SKC,0.00,VWS V14.01,2013-03-13 20:33:00,
2013-03-13 15:38:00,30.0,10.2,30.35,West,272,14.9,14.9,43,0.00,,SKC,0.00,VWS V14.01,2013-03-13 20:38:00,
2013-03-13 15:43:00,30.2,10.4,30.35,NW,310,4.8,11.3,43,0.00,,SKC,0.00,VWS V14.01,2013-03-13 20:43:00,
2013-03-13 15:48:00,30.2,10.4,30.35,West,263,10.5,10.5,43,0.00,,SKC,0.00,VWS V14.01,2013-03-13 20:48:00,
2013-03-13 15:53:00,29.7,9.4,30.35,WNW,288,14.9,14.9,42,0.00,,SKC,0.00,VWS V14.01,2013-03-13 20:53:00,
2013-03-13 15:58:00,29.8,10.1,30.35,WSW,252,11.3,11.3,43,0.00,,SKC,0.00,VWS V14.01,2013-03-13 20:58:00,
2013-03-13 16:03:00,30.6,9.7,30.35,WNW,284,6.4,9.7,41,0.00,,SKC,0.00,VWS V14.01,2013-03-13 21:03:00,
2013-03-13 16:08:00,30.7,10.4,30.35,West,278,7.2,7.2,42,0.00,,SKC,0.00,VWS V14.01,2013-03-13 21:08:00,
2013-03-13 16:14:00,30.9,10.5,30.35,WSW,257,6.4,13.7,42,0.00,,SKC,0.00,VWS V14.01,2013-03-13 21:14:00,
2013-03-13 16:19:00,30.6,10.2,30.35,West,269,9.7,9.7,42,0.00,,SKC,0.00,VWS V14.01,2013-03-13 21:19:00,
2013-03-13 16:24:00,30.2,9.9,30.35,WSW,252,10.5,10.5,42,0.00,,SKC,0.00,VWS V14.01,2013-03-13 21:24:00,
2013-03-13 16:29:00,30.4,10.1,30.35,WSW,253,10.5,14.5,42,0.00,,SKC,0.00,VWS V14.01,2013-03-13 21:29:00,
2013-03-13 16:34:00,30.4,9.5,30.35,West,270,5.6,11.3,41,0.00,,SKC,0.00,VWS V14.01,2013-03-13 21:34:00,
2013-03-13 16:39:00,30.0,9.7,30.35,WNW,289,14.5,14.5,42,0.00,,SKC,0.00,VWS V14.01,2013-03-13 21:39:00,
2013-03-13 16:44:00,30.2,9.9,30.35,West,259,6.4,6.4,42,0.00,,SKC,0.00,VWS V14.01,2013-03-13 21:44:00,
2013-03-13 16:49:00,30.9,10.0,30.35,WNW,283,6.4,7.2,41,0.00,,SKC,0.00,VWS V14.01,2013-03-13 21:49:00,
2013-03-13 16:54:00,31.3,10.9,30.35,West,259,6.4,9.7,42,0.00,,SKC,0.00,VWS V14.01,2013-03-13 21:54:00,
2013-03-13 16:59:00,31.1,10.7,30.35,WSW,240,10.5,10.5,42,0.00,,SKC,0.00,VWS V14.01,2013-03-13 21:59:00,
2013-03-13 17:04:00,30.4,10.1,30.35,SW,221,5.6,8.9,42,0.00,,SKC,0.00,VWS V14.01,2013-03-13 22:04:00,
2013-03-13 17:09:00,30.9,10.5,30.35,West,281,6.4,9.7,42,0.00,,SKC,0.00,VWS V14.01,2013-03-13 22:09:00,
2013-03-13 17:14:00,30.9,10.5,30.35,SW,225,12.9,12.9,42,0.00,,SKC,0.00,VWS V14.01,2013-03-13 22:14:00,
2013-03-13 17:19:00,30.9,10.5,30.35,WSW,255,5.6,10.5,42,0.00,,SKC,0.00,VWS V14.01,2013-03-13 22:19:00,
2013-03-13 17:24:00,30.9,10.5,30.35,SW,221,9.7,9.7,42,0.00,,SKC,0.00,VWS V14.01,2013-03-13 22:24:00,
2013-03-13 17:29:00,30.7,10.4,30.35,SW,232,7.2,11.3,42,0.00,,SKC,0.00,VWS V14.01,2013-03-13 22:29:00,
2013-03-13 17:34:00,29.7,9.4,30.35,SW,226,4.8,8.9,42,0.00,,SKC,0.00,VWS V14.01,2013-03-13 22:34:00,
2013-03-13 17:40:00,29.8,9.6,30.35,WSW,252,11.3,11.3,42,0.00,,SKC,0.00,VWS V14.01,2013-03-13 22:40:00,
2013-03-13 17:45:00,29.7,9.4,30.35,WSW,248,9.7,15.7,42,0.00,,SKC,0.00,VWS V14.01,2013-03-13 22:45:00,
2013-03-13 17:50:00,29.7,9.4,30.35,SSW,213,4.0,6.4,42,0.00,,SKC,0.00,VWS V14.01,2013-03-13 22:50:00,
2013-03-13 17:55:00,29.5,9.2,30.35,SW,230,7.2,11.3,42,0.00,,SKC,0.00,VWS V14.01,2013-03-13 22:55:00,
2013-03-13 18:01:00,29.5,9.2,30.35,West,261,6.4,11.3,42,0.00,,SKC,0.00,VWS V14.01,2013-03-13 23:01:00,
2013-03-13 18:07:00,29.5,9.2,30.35,WSW,256,7.2,8.9,42,0.00,,SKC,0.00,VWS V14.01,2013-03-13 23:07:00,
2013-03-13 18:12:00,28.9,8.7,30.35,SW,236,7.2,7.2,42,0.00,,SKC,0.00,VWS V14.01,2013-03-13 23:12:00,
2013-03-13 18:17:00,28.8,9.1,30.35,WSW,253,0.0,0.0,43,0.00,,SKC,0.00,VWS V14.01,2013-03-13 23:17:00,
2013-03-13 18:22:00,28.8,8.6,30.32,SW,224,0.0,0.0,42,0.00,,SKC,0.00,VWS V14.01,2013-03-13 23:22:00,
2013-03-13 18:27:00,28.6,8.9,30.32,SW,216,6.4,6.4,43,0.00,,SKC,0.00,VWS V14.01,2013-03-13 23:27:00,
2013-03-13 18:32:00,28.2,8.6,30.32,SW,223,5.6,9.7,43,0.00,,SKC,0.00,VWS V14.01,2013-03-13 23:32:00,
2013-03-13 18:37:00,27.3,7.8,30.32,SW,234,8.1,9.7,43,0.00,,SKC,0.00,VWS V14.01,2013-03-13 23:37:00,
2013-03-13 18:43:00,26.6,7.6,30.32,SW,230,7.2,8.9,44,0.00,,SKC,0.00,VWS V14.01,2013-03-13 23:43:00,
2013-03-13 18:48:00,26.1,7.2,30.32,WSW,248,6.4,6.4,44,0.00,,SKC,0.00,VWS V14.01,2013-03-13 23:48:00,
2013-03-13 18:53:00,25.3,7.0,30.32,SW,233,4.8,7.2,45,0.00,,SKC,0.00,VWS V14.01,2013-03-13 23:53:00,
2013-03-13 18:59:00,24.6,6.8,30.32,SSW,212,5.6,6.4,46,0.00,,SKC,0.00,VWS V14.01,2013-03-13 23:59:00,
2013-03-13 19:04:00,23.9,6.6,30.32,WSW,256,4.0,4.8,47,0.00,,SKC,0.00,VWS V14.01,2013-03-14 00:04:00,
2013-03-13 19:09:00,23.5,7.2,30.32,SW,235,0.0,6.4,49,0.00,,SKC,0.00,VWS V14.01,2013-03-14 00:09:00,
2013-03-13 19:14:00,23.0,7.6,30.32,WSW,239,9.7,9.7,51,0.00,,SKC,0.00,VWS V14.01,2013-03-14 00:14:00,
2013-03-13 19:20:00,22.5,7.9,30.32,WSW,245,4.0,4.0,53,0.00,,SKC,0.00,VWS V14.01,2013-03-14 00:20:00,
2013-03-13 19:25:00,21.9,7.4,30.32,SW,227,0.0,7.2,53,0.00,,SKC,0.00,VWS V14.01,2013-03-14 00:25:00,
2013-03-13 19:30:00,21.6,7.5,30.32,SW,235,0.0,0.0,54,0.00,,SKC,0.00,VWS V14.01,2013-03-14 00:30:00,
2013-03-13 19:35:00,21.2,7.6,30.32,SW,236,0.0,0.0,55,0.00,,SKC,0.00,VWS V14.01,2013-03-14 00:35:00,
2013-03-13 19:40:00,20.8,7.2,30.32,SW,236,0.0,0.0,55,0.00,,SKC,0.00,VWS V14.01,2013-03-14 00:40:00,
2013-03-13 19:45:00,20.3,7.1,30.32,SW,231,0.0,0.0,56,0.00,,SKC,0.00,VWS V14.01,2013-03-14 00:45:00,
2013-03-13 19:50:00,20.3,7.1,30.32,SW,222,0.0,0.0,56,0.00,,SKC,0.00,VWS V14.01,2013-03-14 00:50:00,
2013-03-13 19:55:00,19.9,7.6,30.32,SW,229,0.0,0.0,58,0.00,,SKC,0.00,VWS V14.01,2013-03-14 00:55:00,
2013-03-13 20:00:00,19.9,7.6,30.32,SW,231,0.0,0.0,58,0.00,,SKC,0.00,VWS V14.01,2013-03-14 01:00:00,
2013-03-13 20:05:00,19.6,7.6,30.32,SW,231,0.0,0.0,59,0.00,,SKC,0.00,VWS V14.01,2013-03-14 01:05:00,
2013-03-13 20:10:00,19.2,7.2,30.32,SW,231,0.0,0.0,59,0.00,,SKC,0.00,VWS V14.01,2013-03-14 01:10:00,
2013-03-13 20:15:00,19.2,7.6,30.32,SW,231,0.0,0.0,60,0.00,,SKC,0.00,VWS V14.01,2013-03-14 01:15:00,
2013-03-13 20:20:00,19.0,7.4,30.32,SW,231,0.0,0.0,60,0.00,,SKC,0.00,VWS V14.01,2013-03-14 01:20:00,
2013-03-13 20:25:00,18.7,7.1,30.32,SW,231,0.0,0.0,60,0.00,,SKC,0.00,VWS V14.01,2013-03-14 01:25:00,
2013-03-13 20:30:00,18.7,7.5,30.32,SW,231,0.0,0.0,61,0.00,,SKC,0.00,VWS V14.01,2013-03-14 01:30:00,
2013-03-13 20:35:00,18.5,7.3,30.32,SW,229,0.0,0.0,61,0.00,,SKC,0.00,VWS V14.01,2013-03-14 01:35:00,
2013-03-13 20:40:00,18.3,7.1,30.32,SW,229,0.0,0.0,61,0.00,,SKC,0.00,VWS V14.01,2013-03-14 01:40:00,
2013-03-13 20:45:00,18.1,7.0,30.32,SW,229,0.0,0.0,61,0.00,,SKC,0.00,VWS V14.01,2013-03-14 01:45:00,
2013-03-13 20:50:00,18.1,7.3,30.32,SW,229,0.0,0.0,62,0.00,,SKC,0.00,VWS V14.01,2013-03-14 01:50:00,
2013-03-13 20:55:00,18.1,7.3,30.32,SW,229,0.0,0.0,62,0.00,,SKC,0.00,VWS V14.01,2013-03-14 01:55:00,
2013-03-13 21:00:00,18.1,7.3,30.32,SW,229,0.0,0.0,62,0.00,,SKC,0.00,VWS V14.01,2013-03-14 02:00:00,
2013-03-13 21:05:00,18.0,7.5,30.32,SW,229,0.0,0.0,63,0.00,,SKC,0.00,VWS V14.01,2013-03-14 02:05:00,
2013-03-13 21:10:00,18.0,7.8,30.32,SW,229,0.0,0.0,64,0.00,,SKC,0.00,VWS V14.01,2013-03-14 02:10:00,
2013-03-13 21:15:00,17.8,7.7,30.32,SW,229,0.0,0.0,64,0.00,,SKC,0.00,VWS V14.01,2013-03-14 02:15:00,
2013-03-13 21:20:00,17.6,7.5,30.32,SW,229,0.0,0.0,64,0.00,,SKC,0.00,VWS V14.01,2013-03-14 02:20:00,
2013-03-13 21:25:00,17.6,7.5,30.32,SW,229,0.0,0.0,64,0.00,,SKC,0.00,VWS V14.01,2013-03-14 02:25:00,
2013-03-13 21:30:00,17.4,7.3,30.32,SW,229,0.0,0.0,64,0.00,,SKC,0.00,VWS V14.01,2013-03-14 02:30:00,
2013-03-13 21:35:00,17.4,7.7,30.32,SW,229,0.0,0.0,65,0.00,,SKC,0.00,VWS V14.01,2013-03-14 02:35:00,
2013-03-13 21:40:00,17.4,8.4,30.32,SW,229,0.0,0.0,67,0.00,,SKC,0.00,VWS V14.01,2013-03-14 02:40:00,
2013-03-13 21:45:00,17.1,8.0,30.32,SW,229,0.0,0.0,67,0.00,,SKC,0.00,VWS V14.01,2013-03-14 02:45:00,
2013-03-13 21:50:00,17.1,8.0,30.32,SW,229,0.0,0.0,67,0.00,,SKC,0.00,VWS V14.01,2013-03-14 02:50:00,
2013-03-13 21:55:00,17.2,8.2,30.32,SW,229,0.0,0.0,67,0.00,,SKC,0.00,VWS V14.01,2013-03-14 02:55:00,
2013-03-13 22:00:00,17.4,8.7,30.32,SW,229,0.0,0.0,68,0.00,,SKC,0.00,VWS V14.01,2013-03-14 03:00:00,
2013-03-13 22:05:00,17.4,8.7,30.32,SW,226,0.0,0.0,68,0.00,,SKC,0.00,VWS V14.01,2013-03-14 03:05:00,
2013-03-13 22:10:00,17.4,8.7,30.32,SW,226,0.0,0.0,68,0.00,,SKC,0.00,VWS V14.01,2013-03-14 03:10:00,
2013-03-13 22:15:00,17.2,8.5,30.32,SW,226,0.0,0.0,68,0.00,,SKC,0.00,VWS V14.01,2013-03-14 03:15:00,
2013-03-13 22:20:00,17.1,8.3,30.32,SW,226,0.0,0.0,68,0.00,,SKC,0.00,VWS V14.01,2013-03-14 03:20:00,
2013-03-13 22:25:00,17.1,8.7,30.32,SW,226,0.0,0.0,69,0.00,,SKC,0.00,VWS V14.01,2013-03-14 03:25:00,
2013-03-13 22:30:00,17.1,8.7,30.32,SW,226,0.0,0.0,69,0.00,,SKC,0.00,VWS V14.01,2013-03-14 03:30:00,
2013-03-13 22:35:00,17.4,9.0,30.32,SW,226,0.0,0.0,69,0.00,,SKC,0.00,VWS V14.01,2013-03-14 03:35:00,
2013-03-13 22:40:00,17.4,9.0,30.32,SW,226,0.0,0.0,69,0.00,,SKC,0.00,VWS V14.01,2013-03-14 03:40:00,
2013-03-13 22:45:00,17.4,9.0,30.32,SSW,197,0.0,0.0,69,0.00,,SKC,0.00,VWS V14.01,2013-03-14 03:45:00,
2013-03-13 22:50:00,17.4,9.0,30.32,SSW,197,0.0,0.0,69,0.00,,SKC,0.00,VWS V14.01,2013-03-14 03:50:00,
2013-03-13 22:55:00,17.4,9.0,30.32,SSW,197,0.0,0.0,69,0.00,,SKC,0.00,VWS V14.01,2013-03-14 03:55:00,
2013-03-13 23:00:00,17.4,9.3,30.32,SSW,193,0.0,0.0,70,0.00,,SKC,0.00,VWS V14.01,2013-03-14 04:00:00,
2013-03-13 23:02:00,17.4,9.3,30.32,SSE,161,0.0,0.0,70,0.00,,SKC,0.00,VWS V14.01,2013-03-14 04:02:00,
2013-03-13 23:05:00,17.4,9.3,30.29,South,175,0.0,0.0,70,0.00,,SKC,0.00,VWS V14.01,2013-03-14 04:05:00,
2013-03-13 23:10:00,17.6,9.8,30.29,South,180,0.0,6.4,71,0.00,,SKC,0.00,VWS V14.01,2013-03-14 04:10:00,
2013-03-13 23:15:00,17.4,9.6,30.29,South,173,0.0,0.0,71,0.00,,SKC,0.00,VWS V14.01,2013-03-14 04:15:00,
2013-03-13 23:20:00,17.4,9.6,30.29,South,173,0.0,0.0,71,0.00,,SKC,0.00,VWS V14.01,2013-03-14 04:20:00,
2013-03-13 23:25:00,17.6,10.1,30.29,SSE,168,0.0,0.0,72,0.00,,SKC,0.00,VWS V14.01,2013-03-14 04:25:00,
2013-03-13 23:30:00,17.6,10.1,30.29,South,187,0.0,0.0,72,0.00,,SKC,0.00,VWS V14.01,2013-03-14 04:30:00,
2013-03-13 23:35:00,17.6,10.1,30.29,South,186,0.0,0.0,72,0.00,,SKC,0.00,VWS V14.01,2013-03-14 04:35:00,
2013-03-13 23:40:00,17.6,10.1,30.29,South,176,0.0,0.0,72,0.00,,SKC,0.00,VWS V14.01,2013-03-14 04:40:00,
2013-03-13 23:45:00,17.6,10.1,30.29,South,181,4.0,5.6,72,0.00,,SKC,0.00,VWS V14.01,2013-03-14 04:45:00,
2013-03-13 23:51:00,17.6,10.1,30.29,South,187,0.0,6.4,72,0.00,,SKC,0.00,VWS V14.01,2013-03-14 04:51:00,
2013-03-13 23:56:00,17.8,10.3,30.29,SSE,162,0.0,4.8,72,0.00,,SKC,0.00,VWS V14.01,2013-03-14 04:56:00,